createdAt,value
2022-09-07T00:01:08.742Z,90.77
2022-09-07T00:03:36.887Z,90.61
2022-09-07T00:06:07.896Z,90.62
2022-09-07T00:08:36.906Z,90.96
2022-09-07T00:11:07.692Z,90.77
2022-09-07T00:13:38.355Z,90.81
2022-09-07T00:16:08.873Z,91.29
2022-09-07T00:18:37.236Z,91.57
2022-09-07T00:21:08.714Z,91.72
2022-09-07T00:23:38.714Z,91.73
2022-09-07T00:26:12.821Z,91.97
2022-09-07T00:28:41.924Z,92.12
2022-09-07T00:31:12.774Z,92.21
2022-09-07T00:33:42.113Z,92.42
2022-09-07T00:36:10.184Z,92.39
2022-09-07T00:38:38.273Z,92.73
2022-09-07T00:41:06.442Z,92.44
2022-09-07T00:43:47.122Z,92.87
2022-09-07T00:46:24.491Z,93.12
2022-09-07T00:49:10.606Z,93.20
2022-09-07T00:51:47.608Z,93.39
2022-09-07T00:54:20.877Z,93.61
2022-09-07T00:56:50.894Z,93.61
2022-09-07T00:59:24.106Z,93.75
2022-09-07T01:01:52.476Z,94.25
2022-09-07T01:04:22.294Z,94.55
2022-09-07T01:06:50.286Z,94.76
2022-09-07T01:09:23.098Z,94.88
2022-09-07T01:11:52.655Z,95.36
2022-09-07T01:14:24.102Z,95.32
2022-09-07T01:17:12.312Z,95.74
2022-09-07T01:19:49.436Z,96.18
2022-09-07T01:22:20.110Z,96.21
2022-09-07T01:25:07.585Z,96.26
2022-09-07T01:27:55.763Z,96.15
2022-09-07T01:30:24.762Z,96.22
2022-09-07T01:32:58.496Z,96.43
2022-09-07T01:35:53.874Z,96.83
2022-09-07T01:38:30.517Z,96.89
2022-09-07T01:41:10.291Z,96.58
2022-09-07T01:43:51.338Z,96.83
2022-09-07T01:46:27.021Z,96.51
2022-09-07T01:49:01.017Z,96.70
2022-09-07T01:51:33.666Z,96.69
2022-09-07T01:54:14.202Z,96.45
2022-09-07T01:56:46.779Z,96.53
2022-09-07T01:59:21.409Z,96.79
2022-09-07T02:01:59.102Z,96.99
2022-09-07T02:04:36.405Z,97.49
2022-09-07T02:07:15.915Z,97.31
2022-09-07T02:09:52.259Z,97.62
2022-09-07T02:12:44.143Z,97.72
2022-09-07T02:15:21.087Z,98.17
2022-09-07T02:17:54.496Z,98.07
2022-09-07T02:20:27.040Z,98.21
2022-09-07T02:23:00.213Z,98.34
2022-09-07T02:25:37.895Z,98.21
2022-09-07T02:28:12.399Z,98.09
2022-09-07T02:30:40.312Z,98.29
2022-09-07T02:33:08.694Z,98.10
2022-09-07T02:35:36.822Z,98.77
2022-09-07T02:38:06.791Z,99.10
2022-09-07T02:40:35.165Z,99.17
2022-09-07T02:43:06.749Z,99.53
2022-09-07T02:46:09.920Z,99.82
2022-09-07T02:48:58.154Z,99.92
2022-09-07T02:51:39.027Z,100.00
2022-09-07T02:54:19.645Z,100.00
2022-09-07T02:57:16.527Z,100.00
2022-09-07T03:00:07.556Z,100.00
2022-09-07T03:03:03.800Z,100.00
2022-09-07T03:05:43.053Z,100.00
2022-09-07T03:08:12.861Z,100.00
2022-09-07T03:10:42.648Z,100.00
2022-09-07T03:13:23.839Z,100.00
2022-09-07T03:15:55.753Z,100.00
2022-09-07T03:18:26.187Z,100.00
2022-09-07T03:20:54.943Z,100.00
2022-09-07T03:23:23.622Z,100.00
2022-09-07T03:25:51.336Z,100.00
2022-09-07T03:28:19.093Z,100.00
2022-09-07T03:30:49.822Z,100.00
2022-09-07T03:33:17.834Z,100.00
2022-09-07T03:35:56.722Z,100.00
2022-09-07T03:38:24.724Z,100.00
2022-09-07T03:41:04.268Z,100.00
2022-09-07T03:43:33.327Z,100.00
2022-09-07T03:46:05.141Z,100.00
2022-09-07T03:48:34.957Z,100.00
2022-09-07T03:51:11.109Z,100.00
2022-09-07T03:53:41.012Z,100.00
2022-09-07T03:56:16.354Z,100.00
2022-09-07T03:58:45.556Z,100.00
2022-09-07T04:01:17.165Z,100.00
2022-09-07T04:03:46.126Z,100.00
2022-09-07T04:06:14.894Z,100.00
2022-09-07T04:08:43.730Z,100.00
2022-09-07T04:11:17.500Z,100.00
2022-09-07T04:13:46.367Z,100.00
2022-09-07T04:16:19.532Z,100.00
2022-09-07T04:18:50.346Z,100.00
2022-09-07T04:21:18.700Z,100.00
2022-09-07T04:23:46.976Z,100.00
2022-09-07T04:26:20.083Z,100.00
2022-09-07T04:28:48.027Z,100.00
2022-09-07T04:31:17.641Z,100.00
2022-09-07T04:33:46.826Z,100.00
2022-09-07T04:36:16.462Z,100.00
2022-09-07T04:38:44.805Z,100.00
2022-09-07T04:41:18.138Z,100.00
2022-09-07T04:43:46.706Z,100.00
2022-09-07T04:46:21.910Z,100.00
2022-09-07T04:48:54.207Z,100.00
2022-09-07T04:51:23.274Z,99.93
2022-09-07T04:53:54.157Z,99.30
2022-09-07T04:56:23.272Z,98.56
2022-09-07T04:58:51.423Z,98.37
2022-09-07T05:01:21.720Z,96.94
2022-09-07T05:03:50.211Z,94.42
2022-09-07T05:06:20.599Z,94.79
2022-09-07T05:08:53.688Z,92.81
2022-09-07T05:11:27.926Z,90.99
2022-09-07T05:13:59.339Z,89.34
2022-09-07T05:16:28.095Z,90.04
2022-09-07T05:18:59.390Z,90.66
2022-09-07T05:21:30.326Z,88.92
2022-09-07T05:23:59.877Z,89.26
2022-09-07T05:26:30.121Z,89.17
2022-09-07T05:31:50.419Z,87.86
2022-09-07T05:34:33.736Z,87.59
2022-09-07T05:37:02.401Z,87.30
2022-09-07T05:39:32.056Z,87.42
2022-09-07T05:41:59.966Z,86.95
2022-09-07T05:47:11.651Z,86.15
2022-09-07T05:49:40.099Z,85.79
2022-09-07T05:52:08.169Z,85.45
2022-09-07T05:54:36.025Z,85.09
2022-09-07T05:57:04.429Z,85.16
2022-09-07T05:59:32.258Z,84.97
2022-09-07T06:02:00.401Z,83.44
2022-09-07T06:04:28.262Z,82.40
2022-09-07T06:07:21.686Z,82.11
2022-09-07T06:12:32.054Z,80.58
2022-09-07T06:15:01.628Z,80.75
2022-09-07T06:17:29.995Z,79.91
2022-09-07T06:19:57.843Z,79.91
2022-09-07T06:22:30.106Z,79.43
2022-09-07T06:24:59.003Z,78.87
2022-09-07T06:27:27.516Z,78.78
2022-09-07T06:29:55.763Z,78.60
2022-09-07T06:35:12.906Z,77.15
2022-09-07T06:37:41.425Z,76.56
2022-09-07T06:40:12.114Z,76.87
2022-09-07T06:42:40.391Z,75.31
2022-09-07T06:45:11.428Z,75.24
2022-09-07T06:47:39.994Z,74.56
2022-09-07T06:50:08.775Z,74.80
2022-09-07T06:55:28.049Z,72.66
2022-09-07T06:57:55.924Z,70.93
2022-09-07T07:00:23.792Z,70.55
2022-09-07T07:02:51.787Z,69.93
2022-09-07T07:05:19.678Z,70.15
2022-09-07T07:07:47.463Z,69.44
2022-09-07T07:10:15.638Z,68.77
2022-09-07T07:15:10.981Z,67.69
2022-09-07T07:17:38.735Z,67.56
2022-09-07T07:20:07.562Z,67.47
2022-09-07T07:22:50.720Z,67.76
2022-09-07T07:25:19.454Z,68.83
2022-09-07T07:27:48.693Z,69.45
2022-09-07T07:30:18.304Z,68.38
2022-09-07T07:32:47.012Z,68.48
2022-09-07T07:35:15.346Z,69.40
2022-09-07T07:37:43.577Z,68.86
2022-09-07T07:42:46.168Z,70.56
2022-09-07T07:48:02.855Z,71.37
2022-09-07T07:50:31.789Z,71.69
2022-09-07T07:55:48.944Z,71.38
2022-09-07T07:58:17.079Z,70.63
2022-09-07T08:01:00.441Z,68.67
2022-09-07T08:03:28.842Z,67.92
2022-09-07T08:05:57.025Z,66.90
2022-09-07T08:08:24.998Z,66.92
2022-09-07T08:10:53.100Z,67.22
2022-09-07T08:13:21.647Z,67.32
2022-09-07T08:15:49.573Z,67.04
2022-09-07T08:18:18.188Z,66.57
2022-09-07T08:20:45.949Z,66.29
2022-09-07T08:23:14.766Z,66.94
2022-09-07T08:25:53.396Z,66.54
2022-09-07T08:28:23.499Z,67.00
2022-09-07T08:30:51.312Z,66.86
2022-09-07T08:33:19.254Z,66.44
2022-09-07T08:36:00.467Z,65.17
2022-09-07T08:38:33.258Z,65.38
2022-09-07T08:41:02.586Z,65.53
2022-09-07T08:43:50.190Z,64.83
2022-09-07T08:46:51.598Z,64.39
2022-09-07T08:49:30.263Z,64.18
2022-09-07T08:52:05.463Z,64.13
2022-09-07T08:54:33.303Z,63.02
2022-09-07T09:00:05.099Z,62.84
2022-09-07T09:02:42.018Z,61.40
2022-09-07T09:05:33.101Z,60.88
2022-09-07T09:08:10.917Z,60.69
2022-09-07T09:10:38.682Z,60.84
2022-09-07T09:13:18.802Z,60.31
2022-09-07T09:15:57.019Z,60.41
2022-09-07T09:18:24.717Z,60.42
2022-09-07T09:20:55.656Z,59.72
2022-09-07T09:23:31.300Z,58.97
2022-09-07T09:26:04.553Z,58.78
2022-09-07T09:28:32.625Z,58.13
2022-09-07T09:31:00.723Z,57.49
2022-09-07T09:33:29.147Z,57.41
2022-09-07T09:36:00.188Z,57.93
2022-09-07T09:38:43.620Z,57.76
2022-09-07T09:41:15.935Z,58.12
2022-09-07T09:43:48.946Z,57.34
2022-09-07T09:46:28.487Z,56.92
2022-09-07T09:48:59.699Z,56.44
2022-09-07T09:54:44.837Z,55.91
2022-09-07T09:57:17.383Z,55.83
2022-09-07T10:00:05.539Z,54.83
2022-09-07T10:05:38.589Z,55.74
2022-09-07T10:08:16.944Z,55.18
2022-09-07T10:11:15.548Z,55.48
2022-09-07T10:13:56.015Z,54.75
2022-09-07T10:16:41.576Z,54.74
2022-09-07T10:19:23.637Z,54.57
2022-09-07T10:21:57.420Z,54.98
2022-09-07T10:24:27.817Z,54.68
2022-09-07T10:26:55.558Z,54.11
2022-09-07T10:29:36.463Z,54.23
2022-09-07T10:32:33.133Z,53.79
2022-09-07T10:35:27.837Z,53.09
2022-09-07T10:38:18.722Z,52.87
2022-09-07T10:41:07.368Z,52.61
2022-09-07T10:43:47.321Z,52.86
2022-09-07T10:49:38.248Z,52.52
2022-09-07T10:52:09.190Z,52.05
2022-09-07T10:55:07.765Z,52.68
2022-09-07T10:57:49.120Z,52.64
2022-09-07T11:00:20.325Z,51.90
2022-09-07T11:03:27.097Z,52.12
2022-09-07T11:06:33.299Z,52.20
2022-09-07T11:09:16.903Z,51.58
2022-09-07T11:12:03.017Z,52.30
2022-09-07T11:14:43.962Z,51.68
2022-09-07T11:17:18.912Z,51.56
2022-09-07T11:19:54.817Z,51.01
2022-09-07T11:22:28.139Z,51.42
2022-09-07T11:25:36.870Z,51.63
2022-09-07T11:28:12.914Z,51.71
2022-09-07T11:30:46.750Z,51.38
2022-09-07T11:33:36.473Z,51.69
2022-09-07T11:36:16.337Z,51.61
2022-09-07T11:38:59.782Z,51.32
2022-09-07T11:41:30.844Z,51.08
2022-09-07T11:44:27.807Z,50.87
2022-09-07T11:47:03.544Z,51.59
2022-09-07T11:49:31.335Z,51.41
2022-09-07T11:52:05.642Z,50.26
2022-09-07T11:54:36.466Z,50.45
2022-09-07T11:57:42.549Z,50.67
2022-09-07T12:00:19.265Z,50.79
2022-09-07T12:02:59.786Z,50.69
2022-09-07T12:06:10.438Z,50.71
2022-09-07T12:08:38.171Z,50.61
2022-09-07T12:11:24.563Z,50.71
2022-09-07T12:13:55.017Z,50.34
2022-09-07T12:16:28.940Z,50.70
2022-09-07T12:19:02.830Z,50.19
2022-09-07T12:21:36.470Z,50.17
2022-09-07T12:24:05.030Z,50.29
2022-09-07T12:26:32.734Z,50.58
2022-09-07T12:29:00.436Z,50.43
2022-09-07T12:31:57.566Z,50.42
2022-09-07T12:34:32.267Z,50.27
2022-09-07T12:37:12.399Z,50.57
2022-09-07T12:39:43.923Z,50.39
2022-09-07T12:45:28.796Z,50.36
2022-09-07T12:47:59.068Z,50.78
2022-09-07T12:50:59.930Z,50.52
2022-09-07T12:53:40.691Z,50.04
2022-09-07T12:56:18.361Z,49.91
2022-09-07T12:59:02.320Z,50.20
2022-09-07T13:01:48.835Z,50.74
2022-09-07T13:04:54.885Z,50.16
2022-09-07T13:08:07.229Z,50.15
2022-09-07T13:10:39.659Z,50.49
2022-09-07T13:16:17.781Z,50.24
2022-09-07T13:18:47.046Z,50.77
2022-09-07T13:21:17.521Z,50.75
2022-09-07T13:27:25.073Z,50.86
2022-09-07T13:29:52.755Z,50.28
2022-09-07T13:35:25.519Z,50.74
2022-09-07T13:38:00.736Z,51.02
2022-09-07T13:40:31.980Z,51.06
2022-09-07T13:43:01.915Z,51.17
2022-09-07T13:45:29.566Z,51.07
2022-09-07T13:48:10.268Z,50.81
2022-09-07T13:50:50.548Z,50.83
2022-09-07T13:53:33.345Z,51.15
2022-09-07T13:56:21.660Z,50.66
2022-09-07T13:58:52.554Z,51.37
2022-09-07T14:01:23.604Z,51.21
2022-09-07T14:03:57.090Z,51.13
2022-09-07T14:06:33.722Z,51.28
2022-09-07T14:09:07.077Z,51.68
2022-09-07T14:11:49.729Z,51.53
2022-09-07T14:14:29.588Z,51.52
2022-09-07T14:17:04.719Z,50.68
2022-09-07T14:19:39.872Z,51.13
2022-09-07T14:22:28.867Z,51.21
2022-09-07T14:24:59.452Z,51.03
2022-09-07T14:27:42.124Z,51.30
2022-09-07T14:30:28.683Z,51.63
2022-09-07T14:33:06.272Z,51.34
2022-09-07T14:35:37.740Z,51.34
2022-09-07T14:41:18.888Z,51.71
2022-09-07T14:43:55.727Z,52.08
2022-09-07T14:46:27.240Z,52.09
2022-09-07T14:49:00.655Z,52.15
2022-09-07T14:51:36.128Z,51.85
2022-09-07T14:54:07.417Z,52.53
2022-09-07T14:56:38.203Z,52.81
2022-09-07T14:59:30.943Z,52.77
2022-09-07T15:02:28.362Z,52.33
2022-09-07T15:05:14.622Z,52.20
2022-09-07T15:07:48.857Z,53.05
2022-09-07T15:10:23.668Z,53.13
2022-09-07T15:12:55.079Z,52.73
2022-09-07T15:15:26.928Z,53.11
2022-09-07T15:18:01.856Z,52.49
2022-09-07T15:20:38.534Z,52.18
2022-09-07T15:23:12.247Z,52.45
2022-09-07T15:25:45.317Z,52.78
2022-09-07T15:34:11.610Z,52.76
2022-09-07T15:36:42.668Z,52.91
2022-09-07T15:39:22.569Z,53.63
2022-09-07T15:41:51.625Z,53.41
2022-09-07T15:44:24.980Z,53.93
2022-09-07T15:49:49.161Z,54.54
2022-09-07T15:52:18.317Z,54.23
2022-09-07T15:54:46.800Z,54.23
2022-09-07T16:00:04.405Z,53.81
2022-09-07T16:05:20.197Z,54.29
2022-09-07T16:10:35.976Z,54.40
2022-09-07T16:13:16.169Z,54.27
2022-09-07T16:15:46.686Z,54.34
2022-09-07T16:18:17.090Z,53.96
2022-09-07T16:20:45.953Z,54.08
2022-09-07T16:23:16.163Z,54.27
2022-09-07T16:25:59.602Z,54.32
2022-09-07T16:28:28.363Z,54.62
2022-09-07T16:30:57.418Z,54.66
2022-09-07T16:33:33.135Z,55.11
2022-09-07T16:36:11.586Z,55.29
2022-09-07T16:38:44.255Z,55.33
2022-09-07T16:41:26.571Z,55.49
2022-09-07T16:43:54.812Z,55.88
2022-09-07T16:46:26.801Z,55.47
2022-09-07T16:48:55.162Z,55.78
2022-09-07T16:51:24.408Z,55.77
2022-09-07T16:53:54.944Z,56.05
2022-09-07T16:56:24.600Z,56.18
2022-09-07T16:58:56.257Z,56.16
2022-09-07T17:01:27.028Z,56.78
2022-09-07T17:03:55.358Z,56.95
2022-09-07T17:06:25.909Z,57.23
2022-09-07T17:08:54.698Z,57.23
2022-09-07T17:11:25.391Z,57.66
2022-09-07T17:13:54.146Z,57.70
2022-09-07T17:16:24.592Z,57.81
2022-09-07T17:21:41.920Z,58.20
2022-09-07T17:24:11.171Z,58.65
2022-09-07T17:26:42.335Z,58.22
2022-09-07T17:29:13.111Z,58.30
2022-09-07T17:34:30.671Z,58.58
2022-09-07T17:37:00.573Z,58.60
2022-09-07T17:39:29.389Z,58.61
2022-09-07T17:41:57.792Z,58.49
2022-09-07T17:44:25.717Z,58.11
2022-09-07T17:46:53.484Z,58.22
2022-09-07T17:49:21.355Z,58.06
2022-09-07T17:51:51.284Z,58.00
2022-09-07T17:54:19.165Z,57.92
2022-09-07T17:56:47.019Z,58.10
2022-09-07T18:02:02.998Z,57.55
2022-09-07T18:04:30.945Z,57.59
2022-09-07T18:06:58.795Z,58.02
2022-09-07T18:09:26.536Z,57.98
2022-09-07T18:11:54.431Z,58.09
2022-09-07T18:14:22.310Z,58.48
2022-09-07T18:16:51.037Z,58.37
2022-09-07T18:19:19.144Z,58.29
2022-09-07T18:21:48.089Z,58.66
2022-09-07T18:24:19.921Z,58.80
2022-09-07T18:26:51.184Z,58.91
2022-09-07T18:29:32.911Z,59.02
2022-09-07T18:32:07.366Z,59.16
2022-09-07T18:34:38.280Z,59.60
2022-09-07T18:37:07.114Z,59.68
2022-09-07T18:39:35.733Z,59.70
2022-09-07T18:42:04.111Z,59.60
2022-09-07T18:47:27.950Z,59.81
2022-09-07T18:49:57.650Z,60.10
2022-09-07T18:55:13.867Z,59.91
2022-09-07T18:57:42.253Z,60.04
2022-09-07T19:00:12.088Z,60.18
2022-09-07T19:02:39.904Z,60.35
2022-09-07T19:07:56.569Z,60.54
2022-09-07T19:10:24.386Z,60.57
2022-09-07T19:12:52.116Z,60.75
2022-09-07T19:15:20.719Z,60.56
2022-09-07T19:17:48.542Z,60.65
2022-09-07T19:20:17.559Z,60.72
2022-09-07T19:22:45.572Z,61.01
2022-09-07T19:25:13.347Z,61.11
2022-09-07T19:27:41.113Z,61.33
2022-09-07T19:30:09.622Z,61.28
2022-09-07T19:32:37.366Z,61.40
2022-09-07T19:35:05.445Z,61.41
2022-09-07T19:37:33.576Z,61.33
2022-09-07T19:40:02.053Z,61.52
2022-09-07T19:42:30.067Z,61.88
2022-09-07T19:44:57.977Z,62.37
2022-09-07T19:47:25.771Z,62.07
2022-09-07T19:49:53.604Z,62.03
2022-09-07T19:52:21.403Z,62.14
2022-09-07T19:54:49.365Z,62.23
2022-09-07T19:57:17.222Z,62.36
2022-09-07T19:59:45.720Z,62.14
2022-09-07T20:02:13.689Z,62.00
2022-09-07T20:04:41.477Z,62.08
2022-09-07T20:07:09.210Z,62.05
2022-09-07T20:09:37.338Z,61.77
2022-09-07T20:12:07.994Z,61.99
2022-09-07T20:14:36.031Z,62.08
2022-09-07T20:17:04.105Z,62.13
2022-09-07T20:19:31.865Z,62.30
2022-09-07T20:21:59.701Z,62.06
2022-09-07T20:24:27.844Z,62.16
2022-09-07T20:26:55.517Z,62.06
2022-09-07T20:29:27.913Z,62.08
2022-09-07T20:31:58.738Z,62.35
2022-09-07T20:34:27.799Z,62.61
2022-09-07T20:36:56.807Z,62.56
2022-09-07T20:39:25.512Z,62.50
2022-09-07T20:41:53.260Z,62.99
2022-09-07T20:44:21.004Z,63.18
2022-09-07T20:46:48.955Z,63.41
2022-09-07T20:49:17.016Z,63.66
2022-09-07T20:51:44.761Z,63.70
2022-09-07T20:54:12.589Z,63.59
2022-09-07T20:56:40.381Z,63.99
2022-09-07T20:59:08.568Z,63.65
2022-09-07T21:01:36.702Z,63.74
2022-09-07T21:04:06.301Z,63.93
2022-09-07T21:06:34.176Z,63.75
2022-09-07T21:09:02.172Z,64.01
2022-09-07T21:11:33.236Z,63.98
2022-09-07T21:14:06.288Z,64.10
2022-09-07T21:16:37.383Z,64.05
2022-09-07T21:19:07.305Z,64.07
2022-09-07T21:21:39.104Z,64.68
2022-09-07T21:24:19.194Z,64.65
2022-09-07T21:26:48.339Z,64.55
2022-09-07T21:29:22.976Z,64.48
2022-09-07T21:31:53.444Z,64.71
2022-09-07T21:34:22.200Z,64.48
2022-09-07T21:36:50.617Z,64.72
2022-09-07T21:39:19.312Z,64.57
2022-09-07T21:41:47.144Z,64.45
2022-09-07T21:44:16.195Z,64.63
2022-09-07T21:46:44.612Z,64.64
2022-09-07T21:49:12.424Z,64.86
2022-09-07T21:51:40.471Z,65.01
2022-09-07T21:54:08.818Z,65.05
2022-09-07T21:56:36.674Z,65.36
2022-09-07T21:59:05.225Z,65.45
2022-09-07T22:01:33.244Z,65.53
2022-09-07T22:04:03.935Z,65.60
2022-09-07T22:06:32.630Z,65.78
2022-09-07T22:09:01.251Z,66.14
2022-09-07T22:11:30.410Z,66.22
2022-09-07T22:14:03.515Z,66.35
2022-09-07T22:16:33.043Z,66.54
2022-09-07T22:19:01.365Z,66.73
2022-09-07T22:21:30.355Z,66.73
2022-09-07T22:24:00.889Z,67.05
2022-09-07T22:26:31.272Z,67.17
2022-09-07T22:29:00.128Z,67.34
2022-09-07T22:31:31.929Z,67.22
2022-09-07T22:34:01.954Z,67.40
2022-09-07T22:36:35.232Z,67.27
2022-09-07T22:39:05.598Z,67.40
2022-09-07T22:41:35.620Z,67.58
2022-09-07T22:44:04.226Z,67.87
2022-09-07T22:46:37.334Z,68.05
2022-09-07T22:49:06.895Z,67.93
2022-09-07T22:51:35.055Z,67.81
2022-09-07T22:54:03.474Z,68.03
2022-09-07T22:56:33.353Z,68.14
2022-09-07T22:59:04.309Z,68.22
2022-09-07T23:01:32.516Z,68.05
2022-09-07T23:04:00.720Z,68.36
2022-09-07T23:06:32.715Z,68.16
2022-09-07T23:09:04.078Z,68.46
2022-09-07T23:11:31.861Z,68.70
2022-09-07T23:14:02.811Z,68.99
2022-09-07T23:16:31.177Z,69.09
2022-09-07T23:19:00.318Z,69.29
2022-09-07T23:21:28.750Z,69.07
2022-09-07T23:23:59.796Z,69.23
2022-09-07T23:26:30.220Z,69.51
2022-09-07T23:29:00.383Z,69.62
2022-09-07T23:31:29.749Z,69.81
2022-09-07T23:33:57.979Z,69.89
2022-09-07T23:36:26.393Z,70.06
2022-09-07T23:38:56.280Z,70.26
2022-09-07T23:41:25.129Z,70.24
2022-09-07T23:43:54.425Z,69.94
2022-09-07T23:46:22.256Z,69.71
2022-09-07T23:48:50.544Z,69.26
2022-09-07T23:51:23.393Z,69.25
2022-09-07T23:53:52.700Z,69.31
2022-09-07T23:56:21.141Z,69.25
2022-09-07T23:58:49.205Z,69.28
